Sonoma, CA

3:27 PM PDT on May 22, 2015 (GMT -0700)
Just off the Plaza | | Change Station
CLOSE
Current Station
Personal Weather Station
Location: Sonoma, CA
Elevation: 80 ft
Nearby Weather Stations

Elev 80 ft 38.29 °N, 122.46 °W | Updated 8 minutes ago

Partly Cloudy
Partly Cloudy
71.2 °F
Feels Like 76 °F
N
9.0
Wind Variable Wind from South
Gusts 16.0 mph

Today
High -- | Low -- °F
--% Chance of Precip.
Yesterday
High -- | Low -- °F
Precip. -- in
5:53 AM 8:20 PM
Waxing Crescent, 24% visible
Pressure 30.02 in
Visibility 10.0 miles
Clouds Mostly Cloudy 2700 ft
Heat Index 76 °F
Dew Point 55 °F
Humidity 57%
Rainfall 0.00 in
Snow Depth Not available.
UV 5 out of 12
Pollen 5.80 out of 12
Air Quality Not available.
Flu Activity Sporadic
METAR KO69 222215Z AUTO 28008G17KT 10SM BKN027 19/12 A3002 RMK AO1

More Conditions Fewer Conditions

Pressure 30.02 in
Visibility 10.0 miles
Clouds Mostly Cloudy 2700 ft
Heat Index 76 °F
Dew Point 55 °F
Humidity 57%
Rainfall 0.00 in
Snow Depth Not available.
UV 5 out of 12
Pollen 5.80 out of 12
Air Quality Not available.
Flu Activity Sporadic
METAR KO69 222215Z AUTO 28008G17KT 10SM BKN027 19/12 A3002 RMK AO1

More Conditions Fewer Conditions

10-Day Weather Forecast

Almanac

Astronomy

May. 22, 2015 Rise Set
Actual Time
Civil Twilight
Nautical Twilight
Astronomical Twilight
Moon
Length of Visible Light
Length of Day
Tomorrow will be .
, % of the Moon is Illuminated

Today's Extremes

State Highs State Lows

Community

WunderPhotos

Upload Photos

1,823,324 photos uploaded!

WunderBlogs® & News

Nearby

Air Quality

  Air Quality AQ Index Pollutant
Not available.

Snow Depth

Station Depth Elevation

Earthquake Activity

City Distance Mag. Time & Date
Minimum magnitude displayed is 2.5.

Coastal Water Temperatures

Place Temperature

Stations

Nearby Weather Stations

Station Location Temp. Windchill Dew Point Humidity Wind Precip. Elev Updated Type